sensor_id;sensor_type;location;lat;lon;timestamp;temperature;humidity
51007;DHT22;37034;47.886;-3.904;2022-08-19T00:01:28;22.90;90.40
51007;DHT22;37034;47.886;-3.904;2022-08-19T00:03:59;22.90;90.40
51007;DHT22;37034;47.886;-3.904;2022-08-19T00:06:26;22.90;90.40
51007;DHT22;37034;47.886;-3.904;2022-08-19T00:08:52;22.90;90.50
51007;DHT22;37034;47.886;-3.904;2022-08-19T00:11:18;22.90;90.50
51007;DHT22;37034;47.886;-3.904;2022-08-19T00:13:44;22.90;90.50
51007;DHT22;37034;47.886;-3.904;2022-08-19T00:16:14;22.90;90.60
51007;DHT22;37034;47.886;-3.904;2022-08-19T00:18:41;22.90;90.50
51007;DHT22;37034;47.886;-3.904;2022-08-19T00:21:06;22.90;90.50
51007;DHT22;37034;47.886;-3.904;2022-08-19T00:23:33;22.90;90.50
51007;DHT22;37034;47.886;-3.904;2022-08-19T00:26:00;22.90;90.50
51007;DHT22;37034;47.886;-3.904;2022-08-19T00:28:26;22.90;90.50
51007;DHT22;37034;47.886;-3.904;2022-08-19T00:30:52;22.90;90.60
51007;DHT22;37034;47.886;-3.904;2022-08-19T00:33:18;23.00;90.60
51007;DHT22;37034;47.886;-3.904;2022-08-19T00:35:44;23.00;90.70
51007;DHT22;37034;47.886;-3.904;2022-08-19T00:38:10;23.00;90.40
51007;DHT22;37034;47.886;-3.904;2022-08-19T00:40:35;22.90;90.60
51007;DHT22;37034;47.886;-3.904;2022-08-19T00:43:01;22.90;90.60
51007;DHT22;37034;47.886;-3.904;2022-08-19T00:45:32;22.90;90.70
51007;DHT22;37034;47.886;-3.904;2022-08-19T00:48:01;22.90;90.60
51007;DHT22;37034;47.886;-3.904;2022-08-19T00:50:30;22.90;90.60
51007;DHT22;37034;47.886;-3.904;2022-08-19T00:52:56;22.90;90.60
51007;DHT22;37034;47.886;-3.904;2022-08-19T00:55:25;23.00;90.90
51007;DHT22;37034;47.886;-3.904;2022-08-19T00:58:00;22.90;90.50
51007;DHT22;37034;47.886;-3.904;2022-08-19T01:00:27;22.90;90.70
51007;DHT22;37034;47.886;-3.904;2022-08-19T01:02:54;22.90;90.60
51007;DHT22;37034;47.886;-3.904;2022-08-19T01:05:23;22.90;90.70
51007;DHT22;37034;47.886;-3.904;2022-08-19T01:07:49;22.90;90.80
51007;DHT22;37034;47.886;-3.904;2022-08-19T01:10:19;22.90;90.80
51007;DHT22;37034;47.886;-3.904;2022-08-19T01:12:47;22.90;90.70
51007;DHT22;37034;47.886;-3.904;2022-08-19T01:15:21;22.80;90.70
51007;DHT22;37034;47.886;-3.904;2022-08-19T01:17:48;22.90;91.00
51007;DHT22;37034;47.886;-3.904;2022-08-19T01:20:16;22.90;90.80
51007;DHT22;37034;47.886;-3.904;2022-08-19T01:22:46;22.90;90.90
51007;DHT22;37034;47.886;-3.904;2022-08-19T01:25:15;22.90;90.80
51007;DHT22;37034;47.886;-3.904;2022-08-19T01:27:44;22.90;90.60
51007;DHT22;37034;47.886;-3.904;2022-08-19T01:30:13;22.90;90.70
51007;DHT22;37034;47.886;-3.904;2022-08-19T01:32:39;22.80;90.80
51007;DHT22;37034;47.886;-3.904;2022-08-19T01:35:05;22.90;90.90
51007;DHT22;37034;47.886;-3.904;2022-08-19T01:37:42;22.90;90.80
51007;DHT22;37034;47.886;-3.904;2022-08-19T01:40:08;22.80;90.80
51007;DHT22;37034;47.886;-3.904;2022-08-19T01:42:34;22.90;90.90
51007;DHT22;37034;47.886;-3.904;2022-08-19T01:45:00;22.90;90.70
51007;DHT22;37034;47.886;-3.904;2022-08-19T01:47:26;22.80;90.70
51007;DHT22;37034;47.886;-3.904;2022-08-19T01:49:51;22.80;91.00
51007;DHT22;37034;47.886;-3.904;2022-08-19T01:52:17;22.80;90.90
51007;DHT22;37034;47.886;-3.904;2022-08-19T01:54:43;22.90;91.00
51007;DHT22;37034;47.886;-3.904;2022-08-19T01:57:11;22.90;90.80
51007;DHT22;37034;47.886;-3.904;2022-08-19T01:59:39;22.90;90.80
51007;DHT22;37034;47.886;-3.904;2022-08-19T02:02:05;22.90;90.80
51007;DHT22;37034;47.886;-3.904;2022-08-19T02:04:33;22.90;90.80
51007;DHT22;37034;47.886;-3.904;2022-08-19T02:07:00;22.90;90.80
51007;DHT22;37034;47.886;-3.904;2022-08-19T02:09:25;22.90;90.80
51007;DHT22;37034;47.886;-3.904;2022-08-19T02:11:51;22.90;90.80
51007;DHT22;37034;47.886;-3.904;2022-08-19T02:14:17;22.90;90.80
51007;DHT22;37034;47.886;-3.904;2022-08-19T02:16:42;22.80;90.90
51007;DHT22;37034;47.886;-3.904;2022-08-19T02:19:08;22.90;91.00
51007;DHT22;37034;47.886;-3.904;2022-08-19T02:21:35;22.90;90.90
51007;DHT22;37034;47.886;-3.904;2022-08-19T02:24:02;22.90;90.80
51007;DHT22;37034;47.886;-3.904;2022-08-19T02:26:28;22.90;90.80
51007;DHT22;37034;47.886;-3.904;2022-08-19T02:28:54;22.90;90.90
51007;DHT22;37034;47.886;-3.904;2022-08-19T02:31:21;22.90;90.80
51007;DHT22;37034;47.886;-3.904;2022-08-19T02:33:48;22.90;90.80
51007;DHT22;37034;47.886;-3.904;2022-08-19T02:36:15;22.90;90.80
51007;DHT22;37034;47.886;-3.904;2022-08-19T02:38:41;22.90;90.90
51007;DHT22;37034;47.886;-3.904;2022-08-19T02:41:12;22.90;90.90
51007;DHT22;37034;47.886;-3.904;2022-08-19T02:43:38;22.90;90.90
51007;DHT22;37034;47.886;-3.904;2022-08-19T02:46:20;22.90;90.80
51007;DHT22;37034;47.886;-3.904;2022-08-19T02:48:51;22.80;91.00
51007;DHT22;37034;47.886;-3.904;2022-08-19T02:51:31;22.90;90.90
51007;DHT22;37034;47.886;-3.904;2022-08-19T02:53:57;22.80;91.00
51007;DHT22;37034;47.886;-3.904;2022-08-19T02:56:25;22.90;91.00
51007;DHT22;37034;47.886;-3.904;2022-08-19T02:58:54;22.80;90.90
51007;DHT22;37034;47.886;-3.904;2022-08-19T03:01:30;22.80;91.00
51007;DHT22;37034;47.886;-3.904;2022-08-19T03:03:58;22.80;91.00
51007;DHT22;37034;47.886;-3.904;2022-08-19T03:06:25;22.80;91.00
51007;DHT22;37034;47.886;-3.904;2022-08-19T03:08:51;22.80;91.00
51007;DHT22;37034;47.886;-3.904;2022-08-19T03:11:29;22.80;91.00
51007;DHT22;37034;47.886;-3.904;2022-08-19T03:13:56;22.90;91.10
51007;DHT22;37034;47.886;-3.904;2022-08-19T03:16:22;22.90;91.00
51007;DHT22;37034;47.886;-3.904;2022-08-19T03:18:49;22.90;91.20
51007;DHT22;37034;47.886;-3.904;2022-08-19T03:21:21;22.90;90.90
51007;DHT22;37034;47.886;-3.904;2022-08-19T03:23:47;22.90;91.00
51007;DHT22;37034;47.886;-3.904;2022-08-19T03:26:13;22.80;91.00
51007;DHT22;37034;47.886;-3.904;2022-08-19T03:28:41;22.80;91.10
51007;DHT22;37034;47.886;-3.904;2022-08-19T03:31:12;22.80;91.10
51007;DHT22;37034;47.886;-3.904;2022-08-19T03:33:39;22.80;91.10
51007;DHT22;37034;47.886;-3.904;2022-08-19T03:36:11;22.80;91.40
51007;DHT22;37034;47.886;-3.904;2022-08-19T03:38:43;22.80;91.20
51007;DHT22;37034;47.886;-3.904;2022-08-19T03:41:12;22.80;91.20
51007;DHT22;37034;47.886;-3.904;2022-08-19T03:43:39;22.80;91.10
51007;DHT22;37034;47.886;-3.904;2022-08-19T03:46:08;22.90;91.10
51007;DHT22;37034;47.886;-3.904;2022-08-19T03:48:34;22.90;91.20
51007;DHT22;37034;47.886;-3.904;2022-08-19T03:51:02;22.80;91.10
51007;DHT22;37034;47.886;-3.904;2022-08-19T03:53:29;22.80;91.30
51007;DHT22;37034;47.886;-3.904;2022-08-19T03:55:56;22.80;91.20
51007;DHT22;37034;47.886;-3.904;2022-08-19T03:58:22;22.80;91.20
51007;DHT22;37034;47.886;-3.904;2022-08-19T04:00:48;22.80;91.40
51007;DHT22;37034;47.886;-3.904;2022-08-19T04:03:14;22.90;91.20
51007;DHT22;37034;47.886;-3.904;2022-08-19T04:05:39;22.80;91.20
51007;DHT22;37034;47.886;-3.904;2022-08-19T04:08:05;22.80;91.20
51007;DHT22;37034;47.886;-3.904;2022-08-19T04:10:38;22.90;91.30
51007;DHT22;37034;47.886;-3.904;2022-08-19T04:13:04;22.80;91.30
51007;DHT22;37034;47.886;-3.904;2022-08-19T04:15:32;22.80;91.30
51007;DHT22;37034;47.886;-3.904;2022-08-19T04:18:04;22.90;91.40
51007;DHT22;37034;47.886;-3.904;2022-08-19T04:20:38;22.90;91.40
51007;DHT22;37034;47.886;-3.904;2022-08-19T04:23:04;22.90;91.30
51007;DHT22;37034;47.886;-3.904;2022-08-19T04:25:39;22.90;91.30
51007;DHT22;37034;47.886;-3.904;2022-08-19T04:28:04;22.90;91.30
51007;DHT22;37034;47.886;-3.904;2022-08-19T04:30:30;22.90;91.30
51007;DHT22;37034;47.886;-3.904;2022-08-19T04:32:56;22.90;91.40
51007;DHT22;37034;47.886;-3.904;2022-08-19T04:35:21;22.90;91.40
51007;DHT22;37034;47.886;-3.904;2022-08-19T04:37:47;22.90;91.40
51007;DHT22;37034;47.886;-3.904;2022-08-19T04:40:13;22.90;91.40
51007;DHT22;37034;47.886;-3.904;2022-08-19T04:42:57;22.90;91.30
51007;DHT22;37034;47.886;-3.904;2022-08-19T04:45:23;22.80;91.20
51007;DHT22;37034;47.886;-3.904;2022-08-19T04:47:49;22.80;91.40
51007;DHT22;37034;47.886;-3.904;2022-08-19T04:50:15;22.80;91.40
51007;DHT22;37034;47.886;-3.904;2022-08-19T04:52:41;22.90;91.40
51007;DHT22;37034;47.886;-3.904;2022-08-19T04:55:10;22.80;91.40
51007;DHT22;37034;47.886;-3.904;2022-08-19T04:57:36;22.80;91.50
51007;DHT22;37034;47.886;-3.904;2022-08-19T05:00:07;22.80;91.50
51007;DHT22;37034;47.886;-3.904;2022-08-19T05:02:33;22.80;91.40
51007;DHT22;37034;47.886;-3.904;2022-08-19T05:04:59;22.80;91.40
51007;DHT22;37034;47.886;-3.904;2022-08-19T05:07:25;22.80;91.50
51007;DHT22;37034;47.886;-3.904;2022-08-19T05:09:51;22.80;91.50
51007;DHT22;37034;47.886;-3.904;2022-08-19T05:12:17;22.80;91.50
51007;DHT22;37034;47.886;-3.904;2022-08-19T05:14:43;22.70;91.50
51007;DHT22;37034;47.886;-3.904;2022-08-19T05:17:10;22.70;91.50
51007;DHT22;37034;47.886;-3.904;2022-08-19T05:19:36;22.70;91.60
51007;DHT22;37034;47.886;-3.904;2022-08-19T05:22:20;22.60;91.60
51007;DHT22;37034;47.886;-3.904;2022-08-19T05:25:06;22.70;91.70
51007;DHT22;37034;47.886;-3.904;2022-08-19T05:27:33;22.60;91.80
51007;DHT22;37034;47.886;-3.904;2022-08-19T05:29:59;22.60;91.80
51007;DHT22;37034;47.886;-3.904;2022-08-19T05:32:25;22.60;91.80
51007;DHT22;37034;47.886;-3.904;2022-08-19T05:34:51;22.60;91.90
51007;DHT22;37034;47.886;-3.904;2022-08-19T05:37:17;22.60;91.90
51007;DHT22;37034;47.886;-3.904;2022-08-19T05:39:43;22.60;91.90
51007;DHT22;37034;47.886;-3.904;2022-08-19T05:42:10;22.60;92.00
51007;DHT22;37034;47.886;-3.904;2022-08-19T05:44:42;22.50;92.00
51007;DHT22;37034;47.886;-3.904;2022-08-19T05:47:12;22.60;92.10
51007;DHT22;37034;47.886;-3.904;2022-08-19T05:49:38;22.50;92.00
51007;DHT22;37034;47.886;-3.904;2022-08-19T05:52:05;22.50;92.00
51007;DHT22;37034;47.886;-3.904;2022-08-19T05:54:32;22.50;92.00
51007;DHT22;37034;47.886;-3.904;2022-08-19T05:57:00;22.50;91.90
51007;DHT22;37034;47.886;-3.904;2022-08-19T05:59:25;22.50;92.00
51007;DHT22;37034;47.886;-3.904;2022-08-19T06:01:54;22.50;92.00
51007;DHT22;37034;47.886;-3.904;2022-08-19T06:04:22;22.60;92.20
51007;DHT22;37034;47.886;-3.904;2022-08-19T06:06:49;22.50;92.10
51007;DHT22;37034;47.886;-3.904;2022-08-19T06:09:18;22.60;92.30
51007;DHT22;37034;47.886;-3.904;2022-08-19T06:11:46;22.50;92.10
51007;DHT22;37034;47.886;-3.904;2022-08-19T06:14:19;22.40;92.20
51007;DHT22;37034;47.886;-3.904;2022-08-19T06:16:46;22.40;92.30
51007;DHT22;37034;47.886;-3.904;2022-08-19T06:19:15;22.40;92.20
51007;DHT22;37034;47.886;-3.904;2022-08-19T06:21:44;22.40;92.20
51007;DHT22;37034;47.886;-3.904;2022-08-19T06:24:16;22.40;92.10
51007;DHT22;37034;47.886;-3.904;2022-08-19T06:26:44;22.40;92.00
51007;DHT22;37034;47.886;-3.904;2022-08-19T06:29:13;22.50;92.20
51007;DHT22;37034;47.886;-3.904;2022-08-19T06:31:42;22.40;92.00
51007;DHT22;37034;47.886;-3.904;2022-08-19T06:34:08;22.40;92.10
51007;DHT22;37034;47.886;-3.904;2022-08-19T06:36:46;22.30;92.10
51007;DHT22;37034;47.886;-3.904;2022-08-19T06:39:17;22.40;92.20
51007;DHT22;37034;47.886;-3.904;2022-08-19T06:41:47;22.40;92.10
51007;DHT22;37034;47.886;-3.904;2022-08-19T06:44:13;22.40;91.90
51007;DHT22;37034;47.886;-3.904;2022-08-19T06:46:40;22.40;92.00
51007;DHT22;37034;47.886;-3.904;2022-08-19T06:49:06;22.30;92.10
51007;DHT22;37034;47.886;-3.904;2022-08-19T06:51:35;22.40;92.20
51007;DHT22;37034;47.886;-3.904;2022-08-19T06:54:01;22.50;92.00
51007;DHT22;37034;47.886;-3.904;2022-08-19T06:56:28;22.50;91.90
51007;DHT22;37034;47.886;-3.904;2022-08-19T06:59:03;22.60;91.90
51007;DHT22;37034;47.886;-3.904;2022-08-19T07:01:30;22.60;91.80
51007;DHT22;37034;47.886;-3.904;2022-08-19T07:03:59;22.60;91.80
51007;DHT22;37034;47.886;-3.904;2022-08-19T07:06:26;22.50;91.90
51007;DHT22;37034;47.886;-3.904;2022-08-19T07:08:52;22.60;92.10
51007;DHT22;37034;47.886;-3.904;2022-08-19T07:11:18;22.70;91.70
51007;DHT22;37034;47.886;-3.904;2022-08-19T07:13:44;22.70;91.80
51007;DHT22;37034;47.886;-3.904;2022-08-19T07:16:16;22.80;91.90
51007;DHT22;37034;47.886;-3.904;2022-08-19T07:18:42;22.80;91.80
51007;DHT22;37034;47.886;-3.904;2022-08-19T07:21:14;22.80;91.90
51007;DHT22;37034;47.886;-3.904;2022-08-19T07:23:41;22.90;91.60
51007;DHT22;37034;47.886;-3.904;2022-08-19T07:26:15;22.90;91.70
51007;DHT22;37034;47.886;-3.904;2022-08-19T07:28:41;22.90;91.60
51007;DHT22;37034;47.886;-3.904;2022-08-19T07:31:11;22.90;91.70
51007;DHT22;37034;47.886;-3.904;2022-08-19T07:33:38;22.90;91.70
51007;DHT22;37034;47.886;-3.904;2022-08-19T07:36:05;22.90;91.80
51007;DHT22;37034;47.886;-3.904;2022-08-19T07:38:32;22.90;91.60
51007;DHT22;37034;47.886;-3.904;2022-08-19T07:40:58;23.00;91.60
51007;DHT22;37034;47.886;-3.904;2022-08-19T07:43:24;23.00;91.50
51007;DHT22;37034;47.886;-3.904;2022-08-19T07:45:54;22.90;91.60
51007;DHT22;37034;47.886;-3.904;2022-08-19T07:48:25;23.00;91.60
51007;DHT22;37034;47.886;-3.904;2022-08-19T07:50:57;22.90;91.50
51007;DHT22;37034;47.886;-3.904;2022-08-19T07:53:23;22.90;91.50
51007;DHT22;37034;47.886;-3.904;2022-08-19T07:55:49;22.80;91.40
51007;DHT22;37034;47.886;-3.904;2022-08-19T07:58:18;22.90;91.80
51007;DHT22;37034;47.886;-3.904;2022-08-19T08:00:46;22.90;91.60
51007;DHT22;37034;47.886;-3.904;2022-08-19T08:03:14;22.80;91.60
51007;DHT22;37034;47.886;-3.904;2022-08-19T08:05:41;22.90;91.50
51007;DHT22;37034;47.886;-3.904;2022-08-19T08:08:26;23.00;91.70
51007;DHT22;37034;47.886;-3.904;2022-08-19T08:11:11;23.10;91.60
51007;DHT22;37034;47.886;-3.904;2022-08-19T08:13:37;23.20;91.40
51007;DHT22;37034;47.886;-3.904;2022-08-19T08:16:04;23.20;91.40
51007;DHT22;37034;47.886;-3.904;2022-08-19T08:18:29;23.30;91.30
51007;DHT22;37034;47.886;-3.904;2022-08-19T08:20:57;23.30;91.30
51007;DHT22;37034;47.886;-3.904;2022-08-19T08:23:23;23.40;91.20
51007;DHT22;37034;47.886;-3.904;2022-08-19T08:25:54;23.50;91.00
51007;DHT22;37034;47.886;-3.904;2022-08-19T08:28:20;23.40;90.80
51007;DHT22;37034;47.886;-3.904;2022-08-19T08:30:46;23.40;90.40
51007;DHT22;37034;47.886;-3.904;2022-08-19T08:33:14;23.10;90.90
51007;DHT22;37034;47.886;-3.904;2022-08-19T08:35:42;23.10;91.10
51007;DHT22;37034;47.886;-3.904;2022-08-19T08:38:08;22.90;91.10
51007;DHT22;37034;47.886;-3.904;2022-08-19T08:40:45;23.00;91.60
51007;DHT22;37034;47.886;-3.904;2022-08-19T08:46:12;23.10;91.20
51007;DHT22;37034;47.886;-3.904;2022-08-19T08:49:32;23.10;91.30
51007;DHT22;37034;47.886;-3.904;2022-08-19T08:51:52;23.00;91.20
51007;DHT22;37034;47.886;-3.904;2022-08-19T08:54:25;23.10;90.90
51007;DHT22;37034;47.886;-3.904;2022-08-19T08:56:54;23.20;91.10
51007;DHT22;37034;47.886;-3.904;2022-08-19T08:59:28;23.10;90.80
51007;DHT22;37034;47.886;-3.904;2022-08-19T09:01:58;23.10;91.00
51007;DHT22;37034;47.886;-3.904;2022-08-19T09:04:23;23.20;90.60
51007;DHT22;37034;47.886;-3.904;2022-08-19T09:09:38;23.10;91.20
51007;DHT22;37034;47.886;-3.904;2022-08-19T09:14:45;23.20;91.10
51007;DHT22;37034;47.886;-3.904;2022-08-19T09:17:14;23.10;91.20
51007;DHT22;37034;47.886;-3.904;2022-08-19T09:19:55;23.10;91.50
51007;DHT22;37034;47.886;-3.904;2022-08-19T09:22:21;23.10;91.30
51007;DHT22;37034;47.886;-3.904;2022-08-19T09:24:50;23.10;91.50
51007;DHT22;37034;47.886;-3.904;2022-08-19T09:27:18;23.20;91.30
51007;DHT22;37034;47.886;-3.904;2022-08-19T09:29:44;23.20;91.30
51007;DHT22;37034;47.886;-3.904;2022-08-19T09:32:10;23.10;91.50
51007;DHT22;37034;47.886;-3.904;2022-08-19T09:34:35;23.00;91.40
51007;DHT22;37034;47.886;-3.904;2022-08-19T09:37:01;23.00;91.60
51007;DHT22;37034;47.886;-3.904;2022-08-19T09:39:28;23.20;91.40
51007;DHT22;37034;47.886;-3.904;2022-08-19T09:41:55;23.30;91.20
51007;DHT22;37034;47.886;-3.904;2022-08-19T09:44:21;23.40;91.10
51007;DHT22;37034;47.886;-3.904;2022-08-19T09:46:47;23.50;90.90
51007;DHT22;37034;47.886;-3.904;2022-08-19T09:49:12;23.60;90.90
51007;DHT22;37034;47.886;-3.904;2022-08-19T09:51:38;23.60;90.80
51007;DHT22;37034;47.886;-3.904;2022-08-19T09:54:04;23.70;90.70
51007;DHT22;37034;47.886;-3.904;2022-08-19T09:56:30;23.70;90.90
51007;DHT22;37034;47.886;-3.904;2022-08-19T09:59:01;23.70;90.80
51007;DHT22;37034;47.886;-3.904;2022-08-19T10:01:28;23.60;90.70
51007;DHT22;37034;47.886;-3.904;2022-08-19T10:03:56;23.60;90.80
51007;DHT22;37034;47.886;-3.904;2022-08-19T10:06:24;23.60;91.10
51007;DHT22;37034;47.886;-3.904;2022-08-19T10:08:50;23.50;91.00
51007;DHT22;37034;47.886;-3.904;2022-08-19T10:11:18;23.40;91.00
51007;DHT22;37034;47.886;-3.904;2022-08-19T10:13:44;23.40;91.10
51007;DHT22;37034;47.886;-3.904;2022-08-19T10:16:17;23.30;91.00
51007;DHT22;37034;47.886;-3.904;2022-08-19T10:18:44;23.30;91.10
51007;DHT22;37034;47.886;-3.904;2022-08-19T10:21:17;23.10;91.10
51007;DHT22;37034;47.886;-3.904;2022-08-19T10:23:45;23.10;91.20
51007;DHT22;37034;47.886;-3.904;2022-08-19T10:26:18;23.00;91.30
51007;DHT22;37034;47.886;-3.904;2022-08-19T10:28:44;23.10;91.50
51007;DHT22;37034;47.886;-3.904;2022-08-19T10:31:15;23.10;91.40
51007;DHT22;37034;47.886;-3.904;2022-08-19T10:33:42;23.10;91.40
51007;DHT22;37034;47.886;-3.904;2022-08-19T10:36:12;23.10;91.40
51007;DHT22;37034;47.886;-3.904;2022-08-19T10:38:41;23.00;91.30
51007;DHT22;37034;47.886;-3.904;2022-08-19T10:41:10;23.10;91.70
51007;DHT22;37034;47.886;-3.904;2022-08-19T10:43:36;23.10;91.90
51007;DHT22;37034;47.886;-3.904;2022-08-19T10:46:05;23.10;91.60
51007;DHT22;37034;47.886;-3.904;2022-08-19T10:48:31;23.10;91.60
51007;DHT22;37034;47.886;-3.904;2022-08-19T10:50:58;23.00;91.70
51007;DHT22;37034;47.886;-3.904;2022-08-19T10:53:42;23.00;91.60
51007;DHT22;37034;47.886;-3.904;2022-08-19T10:56:08;22.90;91.70
51007;DHT22;37034;47.886;-3.904;2022-08-19T10:58:52;22.90;91.70
51007;DHT22;37034;47.886;-3.904;2022-08-19T11:01:18;22.90;91.80
51007;DHT22;37034;47.886;-3.904;2022-08-19T11:03:43;22.90;91.80
51007;DHT22;37034;47.886;-3.904;2022-08-19T11:06:11;22.90;91.90
51007;DHT22;37034;47.886;-3.904;2022-08-19T11:08:37;22.80;91.90
51007;DHT22;37034;47.886;-3.904;2022-08-19T11:11:04;22.80;91.90
51007;DHT22;37034;47.886;-3.904;2022-08-19T11:13:31;22.80;91.90
51007;DHT22;37034;47.886;-3.904;2022-08-19T11:16:04;22.80;92.00
51007;DHT22;37034;47.886;-3.904;2022-08-19T11:18:30;22.80;92.10
51007;DHT22;37034;47.886;-3.904;2022-08-19T11:21:06;22.90;92.20
51007;DHT22;37034;47.886;-3.904;2022-08-19T11:23:32;22.90;92.30
51007;DHT22;37034;47.886;-3.904;2022-08-19T11:25:57;22.90;92.10
51007;DHT22;37034;47.886;-3.904;2022-08-19T11:28:24;22.90;92.10
51007;DHT22;37034;47.886;-3.904;2022-08-19T11:30:50;22.90;92.00
51007;DHT22;37034;47.886;-3.904;2022-08-19T11:33:16;22.90;91.90
51007;DHT22;37034;47.886;-3.904;2022-08-19T11:35:41;22.90;92.10
51007;DHT22;37034;47.886;-3.904;2022-08-19T11:38:07;22.90;92.20
51007;DHT22;37034;47.886;-3.904;2022-08-19T11:40:33;23.00;92.30
51007;DHT22;37034;47.886;-3.904;2022-08-19T11:42:59;23.00;92.30
51007;DHT22;37034;47.886;-3.904;2022-08-19T11:45:27;23.10;92.20
51007;DHT22;37034;47.886;-3.904;2022-08-19T11:47:53;23.10;92.20
51007;DHT22;37034;47.886;-3.904;2022-08-19T11:50:20;23.10;92.50
51007;DHT22;37034;47.886;-3.904;2022-08-19T11:52:47;23.20;92.30
51007;DHT22;37034;47.886;-3.904;2022-08-19T11:55:14;23.30;92.30
51007;DHT22;37034;47.886;-3.904;2022-08-19T11:57:41;23.30;92.30
51007;DHT22;37034;47.886;-3.904;2022-08-19T12:00:08;23.30;92.30
51007;DHT22;37034;47.886;-3.904;2022-08-19T12:02:36;23.40;92.40
51007;DHT22;37034;47.886;-3.904;2022-08-19T12:05:01;23.50;92.70
51007;DHT22;37034;47.886;-3.904;2022-08-19T12:07:28;23.60;92.50
51007;DHT22;37034;47.886;-3.904;2022-08-19T12:09:55;23.70;92.50
51007;DHT22;37034;47.886;-3.904;2022-08-19T12:12:22;23.80;92.30
51007;DHT22;37034;47.886;-3.904;2022-08-19T12:14:50;23.80;92.40
51007;DHT22;37034;47.886;-3.904;2022-08-19T12:17:22;23.80;92.20
51007;DHT22;37034;47.886;-3.904;2022-08-19T12:19:48;23.90;92.20
51007;DHT22;37034;47.886;-3.904;2022-08-19T12:22:14;23.90;92.10
51007;DHT22;37034;47.886;-3.904;2022-08-19T12:24:39;24.00;91.90
51007;DHT22;37034;47.886;-3.904;2022-08-19T12:27:05;24.10;91.80
51007;DHT22;37034;47.886;-3.904;2022-08-19T12:29:31;24.10;91.60
51007;DHT22;37034;47.886;-3.904;2022-08-19T12:31:58;24.10;91.50
51007;DHT22;37034;47.886;-3.904;2022-08-19T12:34:27;24.00;91.50
51007;DHT22;37034;47.886;-3.904;2022-08-19T12:36:57;24.00;91.40
51007;DHT22;37034;47.886;-3.904;2022-08-19T12:39:23;24.00;91.60
51007;DHT22;37034;47.886;-3.904;2022-08-19T12:41:49;24.00;91.80
51007;DHT22;37034;47.886;-3.904;2022-08-19T12:44:15;24.20;91.60
51007;DHT22;37034;47.886;-3.904;2022-08-19T12:46:40;24.20;91.70
51007;DHT22;37034;47.886;-3.904;2022-08-19T12:49:06;24.20;91.50
51007;DHT22;37034;47.886;-3.904;2022-08-19T12:51:32;24.30;91.70
51007;DHT22;37034;47.886;-3.904;2022-08-19T12:53:58;24.50;91.70
51007;DHT22;37034;47.886;-3.904;2022-08-19T12:56:24;24.60;91.20
51007;DHT22;37034;47.886;-3.904;2022-08-19T12:58:50;24.80;91.80
51007;DHT22;37034;47.886;-3.904;2022-08-19T13:01:17;24.90;91.60
51007;DHT22;37034;47.886;-3.904;2022-08-19T13:03:45;25.00;91.30
51007;DHT22;37034;47.886;-3.904;2022-08-19T13:06:11;25.00;90.80
51007;DHT22;37034;47.886;-3.904;2022-08-19T13:08:38;25.00;90.80
51007;DHT22;37034;47.886;-3.904;2022-08-19T13:11:11;25.10;91.00
51007;DHT22;37034;47.886;-3.904;2022-08-19T13:13:38;25.20;90.80
51007;DHT22;37034;47.886;-3.904;2022-08-19T13:16:07;25.20;90.70
51007;DHT22;37034;47.886;-3.904;2022-08-19T13:18:33;25.20;90.90
51007;DHT22;37034;47.886;-3.904;2022-08-19T13:21:03;25.30;91.00
51007;DHT22;37034;47.886;-3.904;2022-08-19T13:23:30;25.40;90.50
51007;DHT22;37034;47.886;-3.904;2022-08-19T13:25:58;25.50;90.40
51007;DHT22;37034;47.886;-3.904;2022-08-19T13:28:24;25.50;89.70
51007;DHT22;37034;47.886;-3.904;2022-08-19T13:30:50;25.40;90.20
51007;DHT22;37034;47.886;-3.904;2022-08-19T13:33:34;25.60;90.40
51007;DHT22;37034;47.886;-3.904;2022-08-19T13:36:00;25.70;90.60
51007;DHT22;37034;47.886;-3.904;2022-08-19T13:38:27;25.80;90.30
51007;DHT22;37034;47.886;-3.904;2022-08-19T13:40:54;26.00;90.30
51007;DHT22;37034;47.886;-3.904;2022-08-19T13:43:24;26.10;90.40
51007;DHT22;37034;47.886;-3.904;2022-08-19T13:45:53;26.20;90.10
51007;DHT22;37034;47.886;-3.904;2022-08-19T13:48:22;26.10;89.40
51007;DHT22;37034;47.886;-3.904;2022-08-19T13:50:48;26.00;88.70
51007;DHT22;37034;47.886;-3.904;2022-08-19T13:53:15;26.00;89.50
51007;DHT22;37034;47.886;-3.904;2022-08-19T13:55:42;26.10;89.40
51007;DHT22;37034;47.886;-3.904;2022-08-19T13:58:09;26.10;89.40
51007;DHT22;37034;47.886;-3.904;2022-08-19T14:00:41;26.20;89.70
51007;DHT22;37034;47.886;-3.904;2022-08-19T14:03:07;26.20;88.90
51007;DHT22;37034;47.886;-3.904;2022-08-19T14:05:33;26.30;89.40
51007;DHT22;37034;47.886;-3.904;2022-08-19T14:07:59;26.30;89.20
51007;DHT22;37034;47.886;-3.904;2022-08-19T14:10:26;26.30;88.50
51007;DHT22;37034;47.886;-3.904;2022-08-19T14:12:55;26.20;88.30
51007;DHT22;37034;47.886;-3.904;2022-08-19T14:15:21;26.10;87.80
51007;DHT22;37034;47.886;-3.904;2022-08-19T14:17:48;26.00;88.20
51007;DHT22;37034;47.886;-3.904;2022-08-19T14:20:15;26.00;88.00
51007;DHT22;37034;47.886;-3.904;2022-08-19T14:22:42;25.90;88.20
51007;DHT22;37034;47.886;-3.904;2022-08-19T14:25:11;25.90;88.50
51007;DHT22;37034;47.886;-3.904;2022-08-19T14:27:38;25.90;88.30
51007;DHT22;37034;47.886;-3.904;2022-08-19T14:30:07;25.70;87.90
51007;DHT22;37034;47.886;-3.904;2022-08-19T14:32:34;25.70;88.30
51007;DHT22;37034;47.886;-3.904;2022-08-19T14:35:00;25.70;88.00
51007;DHT22;37034;47.886;-3.904;2022-08-19T14:37:26;25.70;88.40
51007;DHT22;37034;47.886;-3.904;2022-08-19T14:39:52;25.70;87.70
51007;DHT22;37034;47.886;-3.904;2022-08-19T14:42:18;25.40;87.90
51007;DHT22;37034;47.886;-3.904;2022-08-19T14:44:44;25.30;87.80
51007;DHT22;37034;47.886;-3.904;2022-08-19T14:47:10;25.40;88.20
51007;DHT22;37034;47.886;-3.904;2022-08-19T14:49:36;25.20;88.10
51007;DHT22;37034;47.886;-3.904;2022-08-19T14:52:03;25.10;87.90
51007;DHT22;37034;47.886;-3.904;2022-08-19T14:54:29;25.10;87.90
51007;DHT22;37034;47.886;-3.904;2022-08-19T14:56:54;25.10;88.00
51007;DHT22;37034;47.886;-3.904;2022-08-19T14:59:20;25.20;88.10
51007;DHT22;37034;47.886;-3.904;2022-08-19T15:01:46;25.20;88.50
51007;DHT22;37034;47.886;-3.904;2022-08-19T15:04:12;25.20;88.40
51007;DHT22;37034;47.886;-3.904;2022-08-19T15:06:38;25.40;88.30
51007;DHT22;37034;47.886;-3.904;2022-08-19T15:09:04;25.40;87.80
51007;DHT22;37034;47.886;-3.904;2022-08-19T15:11:30;25.50;87.60
51007;DHT22;37034;47.886;-3.904;2022-08-19T15:13:58;25.50;87.40
51007;DHT22;37034;47.886;-3.904;2022-08-19T15:16:25;25.50;87.80
51007;DHT22;37034;47.886;-3.904;2022-08-19T15:18:54;25.50;87.90
51007;DHT22;37034;47.886;-3.904;2022-08-19T15:21:21;25.50;87.30
51007;DHT22;37034;47.886;-3.904;2022-08-19T15:23:48;25.20;87.00
51007;DHT22;37034;47.886;-3.904;2022-08-19T15:26:16;25.20;87.50
51007;DHT22;37034;47.886;-3.904;2022-08-19T15:28:42;25.10;86.50